createdAt,value
2019-01-14T00:00:07.346Z,86.80
2019-01-14T00:02:13.238Z,85.80
2019-01-14T00:04:17.954Z,87.60
2019-01-14T00:06:23.125Z,87.40
2019-01-14T00:08:27.831Z,87.10
2019-01-14T00:10:32.668Z,87.80
2019-01-14T00:12:37.056Z,88.70
2019-01-14T00:14:41.578Z,87.90
2019-01-14T00:16:46.001Z,88.30
2019-01-14T00:18:51.114Z,88.70
2019-01-14T00:20:55.552Z,88.90
2019-01-14T00:23:00.006Z,89.90
2019-01-14T00:25:04.775Z,90.20
2019-01-14T00:27:09.202Z,90.60
2019-01-14T00:29:14.510Z,90.60
2019-01-14T00:31:18.924Z,90.90
2019-01-14T00:33:23.352Z,91.00
2019-01-14T00:35:27.803Z,91.20
2019-01-14T00:37:32.169Z,91.30
2019-01-14T00:39:36.533Z,91.40
2019-01-14T00:41:40.967Z,91.30
2019-01-14T00:43:45.383Z,91.30
2019-01-14T00:45:49.779Z,91.30
2019-01-14T00:47:54.161Z,91.40
2019-01-14T00:49:58.568Z,91.50
2019-01-14T00:52:02.951Z,91.50
2019-01-14T00:54:07.342Z,91.50
2019-01-14T00:56:11.766Z,91.30
2019-01-14T00:58:16.702Z,91.40
2019-01-14T01:00:23.275Z,91.40
2019-01-14T01:02:27.700Z,91.30
2019-01-14T01:04:32.107Z,91.40
2019-01-14T01:06:36.515Z,91.50
2019-01-14T01:08:41.123Z,91.90
2019-01-14T01:10:45.597Z,91.90
2019-01-14T01:12:49.957Z,92.10
2019-01-14T01:14:54.469Z,92.20
2019-01-14T01:16:58.827Z,92.10
2019-01-14T01:19:03.218Z,92.10
2019-01-14T01:21:07.658Z,92.20
2019-01-14T01:23:12.019Z,92.20
2019-01-14T01:25:18.312Z,92.10
2019-01-14T01:27:22.762Z,91.90
2019-01-14T01:29:27.132Z,91.70
2019-01-14T01:31:31.554Z,91.80
2019-01-14T01:33:35.942Z,91.80
2019-01-14T01:35:40.335Z,91.70
2019-01-14T01:37:44.738Z,91.60
2019-01-14T01:39:49.116Z,91.70
2019-01-14T01:41:53.666Z,91.40
2019-01-14T01:43:58.082Z,91.70
2019-01-14T01:46:02.505Z,91.70
2019-01-14T01:48:06.861Z,91.60
2019-01-14T01:50:13.074Z,91.80
2019-01-14T01:52:17.459Z,91.80
2019-01-14T01:54:22.606Z,91.80
2019-01-14T01:56:27.091Z,91.90
2019-01-14T01:58:31.458Z,92.00
2019-01-14T02:00:35.883Z,92.00
2019-01-14T02:02:40.275Z,92.00
2019-01-14T02:04:44.665Z,92.00
2019-01-14T02:06:49.082Z,92.10
2019-01-14T02:08:54.428Z,91.90
2019-01-14T02:10:57.958Z,91.80
2019-01-14T02:13:02.372Z,91.60
2019-01-14T02:15:07.762Z,91.80
2019-01-14T02:17:12.277Z,91.50
2019-01-14T02:19:16.643Z,91.50
2019-01-14T02:21:21.837Z,91.40
2019-01-14T02:23:26.256Z,91.30
2019-01-14T02:25:30.698Z,91.10
2019-01-14T02:27:34.232Z,91.30
2019-01-14T02:29:37.662Z,91.10
2019-01-14T02:31:41.968Z,91.10
2019-01-14T02:33:46.338Z,91.00
2019-01-14T02:35:50.731Z,91.00
2019-01-14T02:37:55.113Z,90.90
2019-01-14T02:39:59.643Z,91.00
2019-01-14T02:42:04.139Z,90.90
2019-01-14T02:44:08.503Z,91.10
2019-01-14T02:46:12.847Z,91.10
2019-01-14T02:48:17.208Z,90.90
2019-01-14T02:50:21.645Z,91.00
2019-01-14T02:52:26.764Z,91.00
2019-01-14T02:54:31.253Z,90.90
2019-01-14T02:56:35.644Z,90.90
2019-01-14T02:58:40.058Z,91.00
2019-01-14T03:00:45.643Z,91.10
2019-01-14T03:02:50.080Z,91.10
2019-01-14T03:04:54.489Z,91.10
2019-01-14T03:06:58.896Z,90.90
2019-01-14T03:09:03.593Z,91.00
2019-01-14T03:11:08.030Z,91.00
2019-01-14T03:13:12.427Z,91.10
2019-01-14T03:15:17.508Z,91.10
2019-01-14T03:17:21.875Z,91.10
2019-01-14T03:19:27.043Z,91.00
2019-01-14T03:21:31.469Z,91.10
2019-01-14T03:23:35.812Z,90.90
2019-01-14T03:25:40.215Z,91.10
2019-01-14T03:27:44.662Z,91.10
2019-01-14T03:29:48.984Z,91.10
2019-01-14T03:31:53.357Z,91.00
2019-01-14T03:33:57.710Z,91.00
2019-01-14T03:36:02.083Z,91.10
2019-01-14T03:38:06.464Z,91.10
2019-01-14T03:40:12.958Z,91.20
2019-01-14T03:42:17.320Z,91.10
2019-01-14T03:44:21.707Z,91.20
2019-01-14T03:46:26.070Z,91.10
2019-01-14T03:48:31.215Z,91.40
2019-01-14T03:50:35.582Z,91.20
2019-01-14T03:52:39.991Z,91.10
2019-01-14T03:54:44.429Z,91.30
2019-01-14T03:56:48.796Z,91.30
2019-01-14T03:58:53.212Z,91.30
2019-01-14T04:00:57.592Z,91.20
2019-01-14T04:03:01.946Z,91.30
2019-01-14T04:05:07.592Z,91.30
2019-01-14T04:07:13.844Z,91.40
2019-01-14T04:09:16.405Z,91.30
2019-01-14T04:11:20.776Z,91.30
2019-01-14T04:13:25.153Z,91.40
2019-01-14T04:15:29.895Z,91.40
2019-01-14T04:17:34.323Z,91.30
2019-01-14T04:19:38.767Z,91.30
2019-01-14T04:21:43.144Z,91.30
2019-01-14T04:23:47.539Z,91.20
2019-01-14T04:25:51.949Z,91.20
2019-01-14T04:27:56.461Z,91.20
2019-01-14T04:30:00.912Z,91.10
2019-01-14T04:32:05.412Z,91.00
2019-01-14T04:34:09.821Z,91.00
2019-01-14T04:36:14.210Z,91.00
2019-01-14T04:38:18.614Z,91.00
2019-01-14T04:40:23.028Z,91.00
2019-01-14T04:42:27.510Z,91.00
2019-01-14T04:44:32.636Z,91.00
2019-01-14T04:46:37.062Z,90.90
2019-01-14T04:48:41.451Z,90.80
2019-01-14T04:50:45.918Z,90.90
2019-01-14T04:52:50.462Z,90.90
2019-01-14T04:54:54.846Z,90.90
2019-01-14T04:56:59.211Z,91.00
2019-01-14T04:59:03.608Z,90.90
2019-01-14T05:01:08.005Z,91.00
2019-01-14T05:03:12.384Z,90.90
2019-01-14T05:05:16.853Z,90.90
2019-01-14T05:07:21.276Z,90.80
2019-01-14T05:09:27.236Z,90.70
2019-01-14T05:11:30.082Z,91.00
2019-01-14T05:13:34.922Z,90.70
2019-01-14T05:15:39.249Z,90.40
2019-01-14T05:17:43.641Z,90.40
2019-01-14T05:19:48.046Z,90.40
2019-01-14T05:21:52.491Z,90.40
2019-01-14T05:23:56.863Z,90.10
2019-01-14T05:26:01.234Z,89.90
2019-01-14T05:28:05.739Z,89.90
2019-01-14T05:30:10.761Z,89.90
2019-01-14T05:32:15.376Z,90.00
2019-01-14T05:34:19.823Z,89.90
2019-01-14T05:36:24.193Z,90.00
2019-01-14T05:38:28.635Z,90.40
2019-01-14T05:40:33.075Z,90.60
2019-01-14T05:42:38.557Z,90.40
2019-01-14T05:44:42.962Z,90.40
2019-01-14T05:46:47.427Z,90.40
2019-01-14T05:48:51.816Z,90.40
2019-01-14T05:50:56.206Z,90.60
2019-01-14T05:53:00.622Z,90.60
2019-01-14T05:55:05.849Z,90.60
2019-01-14T05:57:10.182Z,90.60
2019-01-14T05:59:14.565Z,90.70
2019-01-14T06:01:19.016Z,90.70
2019-01-14T06:03:23.380Z,90.60
2019-01-14T06:05:27.834Z,90.60
2019-01-14T06:07:32.210Z,90.60
2019-01-14T06:09:36.677Z,90.60
2019-01-14T06:11:42.020Z,90.60
2019-01-14T06:13:46.406Z,90.40
2019-01-14T06:15:50.759Z,90.40
2019-01-14T06:17:55.165Z,90.30
2019-01-14T06:19:59.622Z,90.30
2019-01-14T06:22:04.111Z,90.30
2019-01-14T06:24:08.595Z,90.10
2019-01-14T06:26:13.027Z,90.40
2019-01-14T06:28:17.387Z,90.20
2019-01-14T06:30:23.733Z,89.70
2019-01-14T06:32:28.307Z,89.50
2019-01-14T06:34:32.659Z,89.70
2019-01-14T06:36:37.085Z,89.60
2019-01-14T06:38:41.698Z,89.10
2019-01-14T06:40:46.065Z,88.00
2019-01-14T06:42:50.538Z,87.90
2019-01-14T06:44:54.946Z,88.00
2019-01-14T06:46:59.277Z,88.10
2019-01-14T06:49:03.721Z,88.40
2019-01-14T06:51:08.103Z,88.40
2019-01-14T06:53:12.766Z,89.30
2019-01-14T06:55:17.867Z,89.30
2019-01-14T06:57:22.697Z,88.60
2019-01-14T06:59:27.362Z,88.90
2019-01-14T07:01:31.891Z,88.90
2019-01-14T07:03:36.283Z,89.10
2019-01-14T07:05:40.767Z,87.70
2019-01-14T07:07:45.738Z,86.40
2019-01-14T07:09:50.235Z,87.30
2019-01-14T07:11:54.671Z,87.10
2019-01-14T07:13:59.037Z,86.60
2019-01-14T07:16:03.466Z,85.50
2019-01-14T07:18:08.040Z,84.20
2019-01-14T07:20:14.123Z,83.70
2019-01-14T07:22:18.486Z,84.00
2019-01-14T07:24:23.104Z,81.50
2019-01-14T07:26:27.647Z,82.20
2019-01-14T07:28:32.056Z,83.10
2019-01-14T07:30:36.446Z,84.50
2019-01-14T07:32:40.814Z,82.10
2019-01-14T07:34:45.204Z,83.60
2019-01-14T07:36:50.594Z,81.50
2019-01-14T07:38:55.095Z,80.80
2019-01-14T07:40:59.474Z,82.60
2019-01-14T07:43:03.914Z,83.50
2019-01-14T07:45:09.432Z,83.00
2019-01-14T07:47:15.343Z,82.30
2019-01-14T07:49:19.698Z,82.40
2019-01-14T07:51:24.110Z,83.00
2019-01-14T07:53:28.482Z,82.10
2019-01-14T07:55:32.899Z,82.80
2019-01-14T07:57:37.341Z,83.40
2019-01-14T07:59:41.806Z,83.10
2019-01-14T08:01:46.212Z,83.10
2019-01-14T08:03:50.718Z,83.20
2019-01-14T08:05:55.155Z,83.70
2019-01-14T08:07:59.551Z,83.10
2019-01-14T08:10:04.088Z,83.30
2019-01-14T08:12:08.467Z,83.20
2019-01-14T08:14:14.246Z,82.80
2019-01-14T08:16:17.306Z,82.80
2019-01-14T08:18:21.661Z,83.70
2019-01-14T08:20:26.040Z,83.10
2019-01-14T08:22:30.494Z,83.10
2019-01-14T08:24:34.890Z,83.80
2019-01-14T08:26:39.303Z,83.40
2019-01-14T08:28:43.747Z,83.10
2019-01-14T08:30:48.160Z,84.00
2019-01-14T08:32:52.754Z,83.80
2019-01-14T08:34:57.207Z,84.30
2019-01-14T08:37:01.534Z,84.10
2019-01-14T08:39:08.115Z,83.60
2019-01-14T08:41:12.622Z,85.00
2019-01-14T08:43:17.146Z,86.10
2019-01-14T08:45:21.556Z,86.00
2019-01-14T08:47:25.966Z,87.20
2019-01-14T08:49:30.300Z,87.60
2019-01-14T08:51:34.689Z,88.10
2019-01-14T08:53:59.090Z,88.40
2019-01-14T08:56:03.439Z,88.40
2019-01-14T08:58:11.200Z,88.10
2019-01-14T09:00:17.885Z,87.90
2019-01-14T09:02:22.260Z,87.50
2019-01-14T09:04:32.360Z,87.70
2019-01-14T09:06:31.082Z,87.90
2019-01-14T09:08:35.497Z,87.70
2019-01-14T09:10:39.964Z,87.80
2019-01-14T09:12:44.391Z,88.00
2019-01-14T09:14:48.797Z,87.30
2019-01-14T09:16:53.186Z,87.90
2019-01-14T09:18:57.602Z,87.60
2019-01-14T09:21:01.945Z,87.70
2019-01-14T09:23:06.385Z,87.40
2019-01-14T09:25:10.839Z,87.80
2019-01-14T09:27:15.264Z,86.70
2019-01-14T09:29:19.686Z,87.10
2019-01-14T09:31:24.735Z,87.50
2019-01-14T09:33:29.111Z,87.30
2019-01-14T09:35:33.531Z,87.50
2019-01-14T09:37:37.956Z,87.10
2019-01-14T09:39:42.325Z,87.40
2019-01-14T09:41:46.711Z,87.10
2019-01-14T09:43:51.075Z,86.80
2019-01-14T09:45:55.483Z,86.50
2019-01-14T09:47:59.907Z,86.20
2019-01-14T09:50:04.479Z,86.30
2019-01-14T09:52:08.884Z,86.70
2019-01-14T09:54:13.334Z,87.20
2019-01-14T09:56:17.773Z,87.30
2019-01-14T09:58:22.219Z,84.70
2019-01-14T10:00:26.558Z,86.10
2019-01-14T10:02:30.977Z,85.90
2019-01-14T10:04:41.922Z,85.00
2019-01-14T10:06:46.333Z,84.90
2019-01-14T10:08:50.700Z,82.90
2019-01-14T10:10:55.118Z,82.10
2019-01-14T10:12:59.583Z,81.60
2019-01-14T10:15:04.320Z,79.40
2019-01-14T10:17:08.775Z,79.70
2019-01-14T10:19:13.198Z,80.30
2019-01-14T10:21:17.567Z,80.20
2019-01-14T10:23:21.950Z,80.30
2019-01-14T10:25:26.356Z,80.20
2019-01-14T10:27:30.762Z,80.80
2019-01-14T10:29:35.106Z,79.30
2019-01-14T10:31:39.590Z,81.30
2019-01-14T10:33:43.965Z,81.50
2019-01-14T10:35:48.422Z,80.10
2019-01-14T10:37:52.777Z,77.80
2019-01-14T10:39:57.094Z,80.20
2019-01-14T10:42:05.067Z,80.20
2019-01-14T10:44:06.015Z,78.30
2019-01-14T10:46:10.379Z,78.10
2019-01-14T10:48:14.830Z,77.40
2019-01-14T10:50:19.370Z,76.80
2019-01-14T10:52:23.717Z,78.30
2019-01-14T10:54:28.122Z,75.40
2019-01-14T10:56:32.510Z,75.40
2019-01-14T10:58:36.930Z,74.40
2019-01-14T11:00:42.111Z,75.10
2019-01-14T11:02:47.947Z,75.20
2019-01-14T11:04:51.005Z,74.40
2019-01-14T11:06:56.206Z,71.90
2019-01-14T11:09:05.727Z,75.40
2019-01-14T11:11:05.503Z,75.80
2019-01-14T11:13:09.903Z,74.50
2019-01-14T11:15:14.930Z,75.90
2019-01-14T11:17:19.405Z,70.50
2019-01-14T11:19:23.796Z,73.20
2019-01-14T11:21:28.152Z,74.30
2019-01-14T11:23:32.569Z,75.30
2019-01-14T11:25:37.007Z,74.80
2019-01-14T11:27:41.496Z,74.80
2019-01-14T11:29:51.109Z,75.40
2019-01-14T11:31:55.481Z,74.20
2019-01-14T11:33:59.837Z,72.60
2019-01-14T11:36:04.669Z,73.60
2019-01-14T11:38:13.515Z,74.80
2019-01-14T11:40:20.491Z,72.50
2019-01-14T11:42:24.944Z,72.90
2019-01-14T11:44:29.441Z,74.50
2019-01-14T11:46:33.790Z,72.60
2019-01-14T11:48:38.133Z,72.80
2019-01-14T11:50:42.554Z,75.00
2019-01-14T11:52:47.089Z,75.50
2019-01-14T11:54:51.486Z,77.70
2019-01-14T11:56:55.937Z,78.60
2019-01-14T11:59:00.297Z,79.30
2019-01-14T12:01:04.744Z,79.40
2019-01-14T12:03:09.172Z,80.10
2019-01-14T12:05:13.662Z,80.30
2019-01-14T12:07:19.413Z,77.40
2019-01-14T12:09:23.855Z,78.90
2019-01-14T12:11:28.234Z,78.40
2019-01-14T12:13:32.586Z,79.30
2019-01-14T12:15:37.040Z,79.40
2019-01-14T12:17:41.424Z,78.90
2019-01-14T12:19:45.788Z,77.70
2019-01-14T12:21:50.228Z,76.50
2019-01-14T12:23:54.619Z,77.50
2019-01-14T12:25:59.018Z,76.70
2019-01-14T12:28:03.461Z,76.00
2019-01-14T12:30:13.108Z,76.00
2019-01-14T12:32:17.594Z,74.40
2019-01-14T12:34:22.001Z,74.60
2019-01-14T12:36:26.440Z,72.20
2019-01-14T12:38:30.818Z,71.30
2019-01-14T12:40:35.294Z,71.60
2019-01-14T12:42:39.651Z,72.10
2019-01-14T12:44:44.036Z,70.20
2019-01-14T12:46:48.548Z,69.20
2019-01-14T12:48:52.963Z,70.80
2019-01-14T12:50:58.984Z,72.30
2019-01-14T12:53:03.566Z,71.90
2019-01-14T12:55:09.268Z,71.80
2019-01-14T12:57:13.717Z,70.80
2019-01-14T12:59:18.109Z,71.70
2019-01-14T13:01:22.468Z,71.10
2019-01-14T13:03:26.786Z,70.00
2019-01-14T13:05:31.254Z,70.30
2019-01-14T13:07:35.694Z,69.10
2019-01-14T13:09:40.050Z,71.60
2019-01-14T13:11:44.466Z,70.00
2019-01-14T13:13:48.799Z,71.20
2019-01-14T13:15:54.031Z,70.70
2019-01-14T13:17:58.449Z,70.80
2019-01-14T13:20:02.898Z,69.70
2019-01-14T13:22:07.328Z,68.00
2019-01-14T13:24:11.700Z,69.70
2019-01-14T13:26:16.090Z,69.40
2019-01-14T13:28:20.471Z,66.60
2019-01-14T13:30:32.421Z,69.70
2019-01-14T13:32:36.765Z,68.10
2019-01-14T13:34:44.818Z,69.80
2019-01-14T13:36:45.510Z,68.60
2019-01-14T13:38:49.911Z,66.20
2019-01-14T13:40:54.744Z,65.50
2019-01-14T13:42:58.707Z,66.40
2019-01-14T13:45:03.174Z,64.40
2019-01-14T13:47:07.706Z,68.00
2019-01-14T13:49:12.130Z,66.40
2019-01-14T13:51:16.608Z,66.00
2019-01-14T13:53:21.030Z,65.80
2019-01-14T13:55:25.458Z,67.30
2019-01-14T13:57:29.870Z,67.40
2019-01-14T13:59:34.349Z,70.70
2019-01-14T14:01:38.769Z,73.20
2019-01-14T14:03:43.126Z,75.20
2019-01-14T14:05:47.502Z,77.00
2019-01-14T14:07:51.982Z,78.60
2019-01-14T14:10:24.958Z,80.10
2019-01-14T14:12:29.338Z,81.00
2019-01-14T14:14:33.711Z,81.60
2019-01-14T14:16:38.041Z,83.30
2019-01-14T14:18:42.402Z,82.20
2019-01-14T14:20:46.770Z,81.90
2019-01-14T14:22:51.162Z,81.70
2019-01-14T14:24:55.499Z,82.00
2019-01-14T14:26:59.866Z,81.80
2019-01-14T14:29:04.286Z,81.70
2019-01-14T14:31:08.648Z,81.50
2019-01-14T14:33:13.085Z,81.90
2019-01-14T14:35:17.662Z,80.60
2019-01-14T14:37:21.994Z,79.80
2019-01-14T14:39:26.356Z,79.40
2019-01-14T14:41:30.751Z,79.50
2019-01-14T14:43:35.143Z,79.20
2019-01-14T14:45:39.604Z,78.50
2019-01-14T14:47:44.000Z,78.50
2019-01-14T14:49:48.368Z,78.50
2019-01-14T14:51:52.707Z,77.90
2019-01-14T14:53:57.271Z,78.20
2019-01-14T14:56:01.573Z,78.80
2019-01-14T14:58:05.997Z,78.70
2019-01-14T15:00:13.505Z,78.20
2019-01-14T15:02:17.963Z,78.20
2019-01-14T15:04:22.422Z,78.30
2019-01-14T15:06:26.827Z,78.80
2019-01-14T15:08:31.156Z,78.30
2019-01-14T15:10:35.511Z,78.40
2019-01-14T15:12:39.899Z,78.30
2019-01-14T15:14:44.230Z,78.70
2019-01-14T15:16:48.546Z,77.80
2019-01-14T15:18:52.922Z,78.10
2019-01-14T15:20:57.257Z,78.30
2019-01-14T15:23:01.696Z,78.00
2019-01-14T15:25:06.162Z,78.00
2019-01-14T15:27:10.543Z,78.30
2019-01-14T15:29:14.946Z,78.90
2019-01-14T15:31:19.318Z,78.00
2019-01-14T15:33:23.722Z,77.90
2019-01-14T15:35:28.190Z,77.80
2019-01-14T15:37:32.579Z,77.70
2019-01-14T15:39:36.994Z,77.40
2019-01-14T15:41:41.442Z,76.80
2019-01-14T15:43:45.881Z,76.30
2019-01-14T15:45:50.235Z,76.30
2019-01-14T15:47:54.703Z,76.70
2019-01-14T15:49:59.105Z,75.70
2019-01-14T15:52:03.487Z,76.20
2019-01-14T15:54:07.887Z,76.20
2019-01-14T15:56:12.546Z,76.50
2019-01-14T15:58:16.929Z,76.50
2019-01-14T16:00:21.377Z,76.50
2019-01-14T16:02:25.710Z,76.20
2019-01-14T16:04:30.105Z,75.90
2019-01-14T16:06:34.460Z,75.50
2019-01-14T16:08:38.867Z,75.50
2019-01-14T16:10:43.274Z,75.50
2019-01-14T16:12:47.628Z,75.20
2019-01-14T16:14:52.005Z,74.40
2019-01-14T16:16:56.379Z,74.30
2019-01-14T16:19:00.831Z,73.90
2019-01-14T16:21:05.199Z,74.30
2019-01-14T16:23:09.527Z,74.10
2019-01-14T16:25:13.977Z,73.90
2019-01-14T16:27:18.302Z,73.40
2019-01-14T16:29:22.801Z,74.20
2019-01-14T16:31:27.283Z,73.90
2019-01-14T16:33:31.724Z,73.00
2019-01-14T16:35:36.101Z,73.30
2019-01-14T16:37:40.879Z,73.00
2019-01-14T16:39:45.564Z,73.40
2019-01-14T16:41:49.958Z,74.30
2019-01-14T16:43:54.356Z,74.00
2019-01-14T16:45:58.710Z,74.20
2019-01-14T16:48:03.074Z,74.80
2019-01-14T16:50:08.379Z,73.50
2019-01-14T16:52:12.890Z,74.30
2019-01-14T16:54:17.256Z,74.50
2019-01-14T16:56:21.590Z,74.80
2019-01-14T16:58:26.062Z,74.40
2019-01-14T17:00:30.468Z,74.80
2019-01-14T17:02:35.002Z,74.90
2019-01-14T17:04:39.374Z,75.10
2019-01-14T17:06:43.735Z,75.40
2019-01-14T17:08:48.147Z,75.60
2019-01-14T17:10:52.539Z,74.90
2019-01-14T17:12:56.968Z,74.40
2019-01-14T17:15:02.293Z,74.90
2019-01-14T17:17:06.604Z,74.80
2019-01-14T17:19:11.029Z,74.70
2019-01-14T17:21:15.476Z,74.20
2019-01-14T17:23:19.811Z,74.10
2019-01-14T17:25:24.153Z,73.80
2019-01-14T17:27:28.641Z,74.10
2019-01-14T17:29:33.091Z,74.10
2019-01-14T17:31:37.606Z,74.40
2019-01-14T17:33:41.937Z,74.30
2019-01-14T17:35:46.294Z,74.30
2019-01-14T17:37:50.642Z,74.10
2019-01-14T17:39:54.978Z,74.10
2019-01-14T17:41:59.434Z,73.30
2019-01-14T17:44:03.841Z,74.00
2019-01-14T17:46:08.169Z,74.00
2019-01-14T17:48:12.688Z,74.80
2019-01-14T17:50:18.739Z,74.40
2019-01-14T17:52:23.092Z,74.80
2019-01-14T17:54:27.411Z,74.50
2019-01-14T17:56:31.901Z,74.90
2019-01-14T17:58:36.841Z,75.00
2019-01-14T18:00:42.282Z,75.20
2019-01-14T18:02:46.781Z,75.30
2019-01-14T18:04:51.176Z,75.30
2019-01-14T18:06:55.540Z,75.60
2019-01-14T18:08:59.919Z,74.60
2019-01-14T18:11:04.307Z,75.20
2019-01-14T18:13:08.642Z,75.50
2019-01-14T18:15:13.150Z,75.80
2019-01-14T18:17:17.517Z,75.90
2019-01-14T18:19:21.915Z,75.80
2019-01-14T18:21:26.374Z,75.40
2019-01-14T18:23:30.811Z,76.00
2019-01-14T18:25:35.363Z,76.00
2019-01-14T18:27:39.807Z,76.00
2019-01-14T18:29:44.521Z,76.20
2019-01-14T18:31:48.926Z,76.00
2019-01-14T18:33:53.388Z,76.30
2019-01-14T18:35:57.851Z,76.70
2019-01-14T18:38:02.341Z,76.50
2019-01-14T18:40:08.646Z,76.80
2019-01-14T18:42:13.188Z,77.00
2019-01-14T18:44:17.580Z,77.20
2019-01-14T18:46:22.057Z,76.70
2019-01-14T18:48:26.896Z,77.10
2019-01-14T18:50:31.357Z,77.50
2019-01-14T18:52:35.794Z,77.10
2019-01-14T18:54:40.298Z,77.30
2019-01-14T18:56:45.337Z,77.60
2019-01-14T18:58:49.756Z,77.50
2019-01-14T19:00:54.335Z,77.70
2019-01-14T19:02:58.760Z,77.70
2019-01-14T19:05:03.240Z,76.90
2019-01-14T19:07:07.769Z,77.00
2019-01-14T19:09:12.147Z,76.90
2019-01-14T19:11:16.543Z,76.70
2019-01-14T19:13:20.945Z,76.90
2019-01-14T19:15:25.326Z,77.40
2019-01-14T19:17:29.857Z,77.80
2019-01-14T19:19:34.318Z,77.70
2019-01-14T19:21:38.676Z,78.20
2019-01-14T19:23:43.167Z,78.00
2019-01-14T19:25:47.828Z,78.20
2019-01-14T19:27:52.239Z,78.20
2019-01-14T19:29:56.664Z,78.60
2019-01-14T19:32:01.553Z,78.70
2019-01-14T19:34:06.077Z,78.90
2019-01-14T19:36:10.563Z,79.20
2019-01-14T19:38:15.136Z,79.30
2019-01-14T19:40:20.464Z,79.20
2019-01-14T19:42:24.970Z,79.40
2019-01-14T19:44:29.429Z,79.30
2019-01-14T19:46:33.907Z,79.70
2019-01-14T19:48:38.332Z,79.30
2019-01-14T19:50:42.784Z,79.80
2019-01-14T19:52:47.434Z,79.70
2019-01-14T19:54:51.823Z,79.80
2019-01-14T19:56:56.265Z,80.10
2019-01-14T19:59:00.789Z,80.20
2019-01-14T20:01:05.267Z,80.10
2019-01-14T20:03:09.701Z,80.00
2019-01-14T20:05:14.952Z,80.70
2019-01-14T20:07:19.374Z,79.70
2019-01-14T20:09:23.810Z,79.70
2019-01-14T20:11:28.254Z,79.40
2019-01-14T20:13:34.641Z,79.70
2019-01-14T20:15:39.058Z,79.60
2019-01-14T20:17:43.610Z,79.70
2019-01-14T20:19:48.126Z,79.30
2019-01-14T20:21:53.684Z,79.70
2019-01-14T20:23:58.123Z,79.30
2019-01-14T20:26:02.596Z,79.40
2019-01-14T20:28:06.985Z,79.20
2019-01-14T20:30:17.089Z,79.30
2019-01-14T20:32:21.462Z,79.40
2019-01-14T20:34:25.932Z,79.50
2019-01-14T20:36:30.419Z,79.50
2019-01-14T20:38:34.838Z,79.10
2019-01-14T20:40:39.295Z,79.40
2019-01-14T20:42:43.823Z,79.20
2019-01-14T20:44:48.396Z,79.10
2019-01-14T20:46:52.892Z,79.40
2019-01-14T20:48:57.417Z,79.10
2019-01-14T20:51:01.863Z,79.00
2019-01-14T20:53:13.478Z,78.60
2019-01-14T20:55:11.091Z,78.60
2019-01-14T20:57:15.554Z,78.10
2019-01-14T20:59:20.028Z,78.00
2019-01-14T21:01:24.569Z,78.00
2019-01-14T21:03:29.247Z,78.30
2019-01-14T21:05:34.195Z,78.10
2019-01-14T21:07:39.261Z,78.10
2019-01-14T21:09:43.885Z,78.00
2019-01-14T21:11:48.459Z,78.10
2019-01-14T21:13:53.238Z,78.00
2019-01-14T21:16:02.827Z,77.70
2019-01-14T21:18:02.509Z,78.10
2019-01-14T21:20:11.041Z,78.00
2019-01-14T21:22:15.605Z,78.00
2019-01-14T21:24:21.869Z,78.10
2019-01-14T21:26:27.589Z,77.80
2019-01-14T21:28:32.251Z,77.80
2019-01-14T21:30:36.816Z,77.90
2019-01-14T21:32:41.435Z,78.00
2019-01-14T21:34:46.065Z,78.00
2019-01-14T21:36:50.561Z,77.90
2019-01-14T21:38:56.998Z,77.90
2019-01-14T21:41:01.612Z,77.70
2019-01-14T21:43:06.208Z,77.50
2019-01-14T21:45:11.580Z,77.90
2019-01-14T21:47:16.116Z,78.00
2019-01-14T21:49:20.576Z,78.00
2019-01-14T21:51:25.083Z,78.00
2019-01-14T21:53:29.624Z,78.10
2019-01-14T21:55:34.087Z,77.90
2019-01-14T21:57:38.715Z,77.90
2019-01-14T21:59:43.228Z,78.00
2019-01-14T22:01:47.773Z,77.90
2019-01-14T22:03:52.277Z,77.90
2019-01-14T22:05:56.897Z,77.90
2019-01-14T22:08:01.380Z,77.90
2019-01-14T22:10:07.560Z,77.90
2019-01-14T22:12:12.111Z,77.90
2019-01-14T22:14:16.668Z,77.90
2019-01-14T22:16:21.167Z,78.10
2019-01-14T22:18:25.662Z,78.00
2019-01-14T22:20:30.293Z,78.20
2019-01-14T22:22:34.692Z,77.90
2019-01-14T22:24:39.063Z,78.10
2019-01-14T22:26:43.790Z,77.90
2019-01-14T22:28:48.458Z,78.30
2019-01-14T22:30:56.700Z,78.40
2019-01-14T22:33:01.415Z,78.90
2019-01-14T22:35:06.129Z,78.50
2019-01-14T22:37:10.550Z,78.80
2019-01-14T22:39:14.982Z,79.10
2019-01-14T22:41:19.366Z,78.80
2019-01-14T22:43:23.754Z,79.20
2019-01-14T22:45:28.173Z,79.30
2019-01-14T22:47:32.574Z,79.40
2019-01-14T22:49:36.949Z,79.40
2019-01-14T22:51:41.336Z,79.50
2019-01-14T22:53:45.679Z,79.20
2019-01-14T22:55:50.035Z,79.40
2019-01-14T22:57:54.403Z,79.70
2019-01-14T22:59:58.825Z,79.70
2019-01-14T23:02:03.317Z,79.70
2019-01-14T23:04:07.701Z,79.80
2019-01-14T23:06:12.105Z,79.70
2019-01-14T23:08:16.561Z,79.80
2019-01-14T23:10:20.977Z,80.00
2019-01-14T23:12:25.340Z,80.10
2019-01-14T23:14:29.660Z,80.40
2019-01-14T23:16:34.090Z,80.40
2019-01-14T23:18:38.428Z,80.30
2019-01-14T23:20:42.863Z,80.20
2019-01-14T23:22:47.244Z,79.70
2019-01-14T23:24:51.577Z,81.20
2019-01-14T23:26:55.953Z,80.50
2019-01-14T23:29:00.338Z,80.60
2019-01-14T23:31:04.942Z,80.00
2019-01-14T23:33:09.341Z,80.50
2019-01-14T23:35:13.672Z,80.30
2019-01-14T23:37:18.094Z,80.50
2019-01-14T23:39:22.640Z,80.20
2019-01-14T23:41:26.985Z,80.40
2019-01-14T23:43:31.390Z,80.50
2019-01-14T23:45:35.849Z,80.70
2019-01-14T23:47:40.251Z,80.60
2019-01-14T23:49:44.566Z,80.50
2019-01-14T23:51:48.949Z,80.70
2019-01-14T23:53:53.325Z,80.60
2019-01-14T23:55:57.734Z,80.30
2019-01-14T23:58:02.167Z,80.20
